KGYH

Donaldson Field Airport

Greenville, South Carolina, USA
METAR KGYH 250047Z 09005KT 10SM SCT090 22/19 A3014 RMK LAST
Observed Flight Rules
May-25 @ 00:47 UTC (35 minutes ago) Visual Flight Rules
Wind Visibility Clouds
90° at 5 knots 10 miles
  • Scattered at 9,000' AGL
Temperatures Readings
Current 22°C / 72°F
Dewpoint 19°C / 66°F
Humidity 83%
Altimeter 30.14" Hg
Pressure 1021 hPa
Elevation 292
METAR KGYH 250047Z 09005KT 10SM SCT090 22/19 A3014 RMK LAST
Observed Flight Rules
May-25 @ 00:47 UTC
(35 minutes ago)
VFR
Wind Visibility
90° at 5 knots 10 miles
Clouds
  • Scattered at 9,000' AGL
Temperature Dewpoint
22°C / 72°F 19°C / 66°F
Humidity Altimeter Pressure
83% 30.14" Hg 1021 hPa